sensor_id;sensor_type;location;lat;lon;timestamp;P1;durP1;ratioP1;P2;durP2;ratioP2
16593;SDS011;8410;52.532;13.336;2022-12-01T00:01:09;85.70;;;44.17;;
16593;SDS011;8410;52.532;13.336;2022-12-01T00:03:37;81.57;;;40.07;;
16593;SDS011;8410;52.532;13.336;2022-12-01T00:06:05;82.43;;;41.67;;
16593;SDS011;8410;52.532;13.336;2022-12-01T00:08:34;87.83;;;41.97;;
16593;SDS011;8410;52.532;13.336;2022-12-01T00:11:02;96.87;;;46.33;;
16593;SDS011;8410;52.532;13.336;2022-12-01T00:13:29;100.27;;;51.87;;
16593;SDS011;8410;52.532;13.336;2022-12-01T00:15:57;88.50;;;41.30;;
16593;SDS011;8410;52.532;13.336;2022-12-01T00:18:35;97.63;;;46.40;;
16593;SDS011;8410;52.532;13.336;2022-12-01T00:21:03;79.20;;;38.13;;
16593;SDS011;8410;52.532;13.336;2022-12-01T00:23:30;78.53;;;38.83;;
16593;SDS011;8410;52.532;13.336;2022-12-01T00:26:01;75.73;;;36.70;;
16593;SDS011;8410;52.532;13.336;2022-12-01T00:28:29;83.40;;;40.77;;
16593;SDS011;8410;52.532;13.336;2022-12-01T00:30:57;84.77;;;44.13;;
16593;SDS011;8410;52.532;13.336;2022-12-01T00:33:25;76.93;;;35.70;;
16593;SDS011;8410;52.532;13.336;2022-12-01T00:35:56;74.90;;;37.53;;
16593;SDS011;8410;52.532;13.336;2022-12-01T00:38:24;74.10;;;35.70;;
16593;SDS011;8410;52.532;13.336;2022-12-01T00:40:52;72.27;;;37.07;;
16593;SDS011;8410;52.532;13.336;2022-12-01T00:43:20;77.53;;;43.20;;
16593;SDS011;8410;52.532;13.336;2022-12-01T00:45:47;73.87;;;35.20;;
16593;SDS011;8410;52.532;13.336;2022-12-01T00:48:16;73.13;;;40.13;;
16593;SDS011;8410;52.532;13.336;2022-12-01T00:50:43;74.63;;;38.23;;
16593;SDS011;8410;52.532;13.336;2022-12-01T00:53:11;66.67;;;37.37;;
16593;SDS011;8410;52.532;13.336;2022-12-01T00:55:39;71.50;;;37.27;;
16593;SDS011;8410;52.532;13.336;2022-12-01T00:58:06;70.27;;;39.47;;
16593;SDS011;8410;52.532;13.336;2022-12-01T01:00:34;72.10;;;36.07;;
16593;SDS011;8410;52.532;13.336;2022-12-01T01:03:03;66.80;;;36.13;;
16593;SDS011;8410;52.532;13.336;2022-12-01T01:05:35;72.33;;;39.63;;
16593;SDS011;8410;52.532;13.336;2022-12-01T01:08:05;74.87;;;38.33;;
16593;SDS011;8410;52.532;13.336;2022-12-01T01:10:33;78.47;;;40.03;;
16593;SDS011;8410;52.532;13.336;2022-12-01T01:13:03;74.47;;;38.43;;
16593;SDS011;8410;52.532;13.336;2022-12-01T01:15:31;82.20;;;40.37;;
16593;SDS011;8410;52.532;13.336;2022-12-01T01:17:58;76.43;;;40.50;;
16593;SDS011;8410;52.532;13.336;2022-12-01T01:20:26;78.03;;;38.70;;
16593;SDS011;8410;52.532;13.336;2022-12-01T01:22:55;80.53;;;40.10;;
16593;SDS011;8410;52.532;13.336;2022-12-01T01:25:23;75.90;;;40.23;;
16593;SDS011;8410;52.532;13.336;2022-12-01T01:27:50;66.30;;;37.37;;
16593;SDS011;8410;52.532;13.336;2022-12-01T01:30:18;74.50;;;39.17;;
16593;SDS011;8410;52.532;13.336;2022-12-01T01:32:46;76.00;;;37.07;;
16593;SDS011;8410;52.532;13.336;2022-12-01T01:35:14;77.73;;;39.03;;
16593;SDS011;8410;52.532;13.336;2022-12-01T01:37:41;80.60;;;37.63;;
16593;SDS011;8410;52.532;13.336;2022-12-01T01:40:10;83.10;;;36.77;;
16593;SDS011;8410;52.532;13.336;2022-12-01T01:42:38;84.70;;;42.40;;
16593;SDS011;8410;52.532;13.336;2022-12-01T01:45:10;75.80;;;41.47;;
16593;SDS011;8410;52.532;13.336;2022-12-01T01:47:45;86.23;;;45.43;;
16593;SDS011;8410;52.532;13.336;2022-12-01T01:50:15;91.93;;;45.93;;
16593;SDS011;8410;52.532;13.336;2022-12-01T01:52:45;88.97;;;38.90;;
16593;SDS011;8410;52.532;13.336;2022-12-01T01:55:18;94.37;;;39.23;;
16593;SDS011;8410;52.532;13.336;2022-12-01T01:57:46;83.00;;;39.17;;
16593;SDS011;8410;52.532;13.336;2022-12-01T02:00:14;102.67;;;49.43;;
16593;SDS011;8410;52.532;13.336;2022-12-01T02:02:44;84.37;;;40.83;;
16593;SDS011;8410;52.532;13.336;2022-12-01T02:05:15;91.80;;;42.80;;
16593;SDS011;8410;52.532;13.336;2022-12-01T02:07:45;78.43;;;36.13;;
16593;SDS011;8410;52.532;13.336;2022-12-01T02:10:14;81.87;;;38.87;;
16593;SDS011;8410;52.532;13.336;2022-12-01T02:13:01;88.63;;;39.30;;
16593;SDS011;8410;52.532;13.336;2022-12-01T02:15:41;79.03;;;35.80;;
16593;SDS011;8410;52.532;13.336;2022-12-01T02:18:19;89.00;;;38.60;;
16593;SDS011;8410;52.532;13.336;2022-12-01T02:20:59;81.63;;;37.13;;
16593;SDS011;8410;52.532;13.336;2022-12-01T02:27:01;88.77;;;39.33;;
16593;SDS011;8410;52.532;13.336;2022-12-01T02:29:36;86.43;;;35.50;;
16593;SDS011;8410;52.532;13.336;2022-12-01T02:32:23;84.97;;;37.07;;
16593;SDS011;8410;52.532;13.336;2022-12-01T02:34:56;78.23;;;35.00;;
16593;SDS011;8410;52.532;13.336;2022-12-01T02:37:29;76.10;;;33.27;;
16593;SDS011;8410;52.532;13.336;2022-12-01T02:40:02;79.73;;;36.00;;
16593;SDS011;8410;52.532;13.336;2022-12-01T02:42:39;87.07;;;40.90;;
16593;SDS011;8410;52.532;13.336;2022-12-01T02:45:16;83.00;;;37.93;;
16593;SDS011;8410;52.532;13.336;2022-12-01T02:47:51;75.23;;;32.10;;
16593;SDS011;8410;52.532;13.336;2022-12-01T02:50:22;87.70;;;37.90;;
16593;SDS011;8410;52.532;13.336;2022-12-01T02:52:53;84.53;;;35.07;;
16593;SDS011;8410;52.532;13.336;2022-12-01T02:55:21;84.27;;;41.53;;
16593;SDS011;8410;52.532;13.336;2022-12-01T02:57:48;86.17;;;38.50;;
16593;SDS011;8410;52.532;13.336;2022-12-01T03:00:16;87.40;;;39.80;;
16593;SDS011;8410;52.532;13.336;2022-12-01T03:02:47;94.00;;;41.30;;
16593;SDS011;8410;52.532;13.336;2022-12-01T03:05:43;100.30;;;42.27;;
16593;SDS011;8410;52.532;13.336;2022-12-01T03:08:20;92.10;;;38.60;;
16593;SDS011;8410;52.532;13.336;2022-12-01T03:10:53;94.70;;;42.90;;
16593;SDS011;8410;52.532;13.336;2022-12-01T03:13:25;94.30;;;39.53;;
16593;SDS011;8410;52.532;13.336;2022-12-01T03:16:05;96.43;;;42.50;;
16593;SDS011;8410;52.532;13.336;2022-12-01T03:18:38;100.43;;;42.97;;
16593;SDS011;8410;52.532;13.336;2022-12-01T03:21:13;106.53;;;40.60;;
16593;SDS011;8410;52.532;13.336;2022-12-01T03:23:49;106.07;;;47.97;;
16593;SDS011;8410;52.532;13.336;2022-12-01T03:26:21;96.13;;;40.47;;
16593;SDS011;8410;52.532;13.336;2022-12-01T03:28:52;103.10;;;45.97;;
16593;SDS011;8410;52.532;13.336;2022-12-01T03:31:24;95.87;;;39.93;;
16593;SDS011;8410;52.532;13.336;2022-12-01T03:33:57;103.40;;;44.33;;
16593;SDS011;8410;52.532;13.336;2022-12-01T03:36:32;94.60;;;40.83;;
16593;SDS011;8410;52.532;13.336;2022-12-01T03:39:05;98.60;;;40.80;;
16593;SDS011;8410;52.532;13.336;2022-12-01T03:41:37;95.77;;;39.50;;
16593;SDS011;8410;52.532;13.336;2022-12-01T03:44:10;91.50;;;38.33;;
16593;SDS011;8410;52.532;13.336;2022-12-01T03:46:44;105.07;;;45.10;;
16593;SDS011;8410;52.532;13.336;2022-12-01T03:49:17;97.80;;;41.20;;
16593;SDS011;8410;52.532;13.336;2022-12-01T03:51:48;100.67;;;41.87;;
16593;SDS011;8410;52.532;13.336;2022-12-01T03:54:24;91.93;;;39.83;;
16593;SDS011;8410;52.532;13.336;2022-12-01T03:57:02;89.83;;;41.33;;
16593;SDS011;8410;52.532;13.336;2022-12-01T03:59:35;100.93;;;45.83;;
16593;SDS011;8410;52.532;13.336;2022-12-01T04:02:05;92.60;;;40.80;;
16593;SDS011;8410;52.532;13.336;2022-12-01T04:04:33;93.07;;;42.53;;
16593;SDS011;8410;52.532;13.336;2022-12-01T04:07:02;107.97;;;44.77;;
16593;SDS011;8410;52.532;13.336;2022-12-01T04:09:30;96.13;;;41.60;;
16593;SDS011;8410;52.532;13.336;2022-12-01T04:11:57;103.30;;;43.40;;
16593;SDS011;8410;52.532;13.336;2022-12-01T04:14:42;111.73;;;46.30;;
16593;SDS011;8410;52.532;13.336;2022-12-01T04:17:09;107.90;;;46.80;;
16593;SDS011;8410;52.532;13.336;2022-12-01T04:19:37;114.40;;;46.20;;
16593;SDS011;8410;52.532;13.336;2022-12-01T04:22:05;98.43;;;43.20;;
16593;SDS011;8410;52.532;13.336;2022-12-01T04:24:33;101.00;;;41.80;;
16593;SDS011;8410;52.532;13.336;2022-12-01T04:27:00;92.67;;;42.80;;
16593;SDS011;8410;52.532;13.336;2022-12-01T04:29:28;103.80;;;41.20;;
16593;SDS011;8410;52.532;13.336;2022-12-01T04:31:55;113.63;;;46.37;;
16593;SDS011;8410;52.532;13.336;2022-12-01T04:34:23;97.10;;;38.20;;
16593;SDS011;8410;52.532;13.336;2022-12-01T04:36:50;103.63;;;44.53;;
16593;SDS011;8410;52.532;13.336;2022-12-01T04:39:19;93.70;;;39.93;;
16593;SDS011;8410;52.532;13.336;2022-12-01T04:41:46;111.07;;;47.93;;
16593;SDS011;8410;52.532;13.336;2022-12-01T04:44:14;102.17;;;42.17;;
16593;SDS011;8410;52.532;13.336;2022-12-01T04:46:42;97.53;;;37.73;;
16593;SDS011;8410;52.532;13.336;2022-12-01T04:49:09;114.83;;;47.20;;
16593;SDS011;8410;52.532;13.336;2022-12-01T04:51:37;99.57;;;40.80;;
16593;SDS011;8410;52.532;13.336;2022-12-01T04:54:04;96.47;;;40.63;;
16593;SDS011;8410;52.532;13.336;2022-12-01T04:56:33;106.47;;;40.93;;
16593;SDS011;8410;52.532;13.336;2022-12-01T04:59:01;109.10;;;50.93;;
16593;SDS011;8410;52.532;13.336;2022-12-01T05:01:28;113.83;;;45.50;;
16593;SDS011;8410;52.532;13.336;2022-12-01T05:03:56;97.40;;;44.40;;
16593;SDS011;8410;52.532;13.336;2022-12-01T05:06:24;104.93;;;44.33;;
16593;SDS011;8410;52.532;13.336;2022-12-01T05:08:53;83.30;;;38.53;;
16593;SDS011;8410;52.532;13.336;2022-12-01T05:11:23;91.47;;;40.33;;
16593;SDS011;8410;52.532;13.336;2022-12-01T05:13:53;90.13;;;42.53;;
16593;SDS011;8410;52.532;13.336;2022-12-01T05:16:22;86.17;;;40.17;;
16593;SDS011;8410;52.532;13.336;2022-12-01T05:18:51;84.37;;;42.10;;
16593;SDS011;8410;52.532;13.336;2022-12-01T05:21:41;94.30;;;43.67;;
16593;SDS011;8410;52.532;13.336;2022-12-01T05:24:09;82.53;;;37.87;;
16593;SDS011;8410;52.532;13.336;2022-12-01T05:26:38;98.37;;;45.30;;
16593;SDS011;8410;52.532;13.336;2022-12-01T05:29:07;90.47;;;45.33;;
16593;SDS011;8410;52.532;13.336;2022-12-01T05:31:36;86.23;;;42.10;;
16593;SDS011;8410;52.532;13.336;2022-12-01T05:34:05;78.83;;;38.73;;
16593;SDS011;8410;52.532;13.336;2022-12-01T05:36:32;90.97;;;46.97;;
16593;SDS011;8410;52.532;13.336;2022-12-01T05:39:00;87.03;;;44.90;;
16593;SDS011;8410;52.532;13.336;2022-12-01T05:41:27;80.43;;;41.07;;
16593;SDS011;8410;52.532;13.336;2022-12-01T05:43:55;91.93;;;44.00;;
16593;SDS011;8410;52.532;13.336;2022-12-01T05:46:23;85.63;;;40.77;;
16593;SDS011;8410;52.532;13.336;2022-12-01T05:48:51;88.37;;;45.90;;
16593;SDS011;8410;52.532;13.336;2022-12-01T05:51:18;91.33;;;47.20;;
16593;SDS011;8410;52.532;13.336;2022-12-01T05:53:46;85.77;;;40.13;;
16593;SDS011;8410;52.532;13.336;2022-12-01T05:56:14;94.57;;;46.33;;
16593;SDS011;8410;52.532;13.336;2022-12-01T05:58:42;94.40;;;46.43;;
16593;SDS011;8410;52.532;13.336;2022-12-01T06:01:09;93.30;;;43.67;;
16593;SDS011;8410;52.532;13.336;2022-12-01T06:03:38;97.50;;;49.77;;
16593;SDS011;8410;52.532;13.336;2022-12-01T06:06:05;89.23;;;45.43;;
16593;SDS011;8410;52.532;13.336;2022-12-01T06:08:33;88.97;;;41.23;;
16593;SDS011;8410;52.532;13.336;2022-12-01T06:11:01;83.43;;;44.77;;
16593;SDS011;8410;52.532;13.336;2022-12-01T06:13:28;88.93;;;47.03;;
16593;SDS011;8410;52.532;13.336;2022-12-01T06:15:56;82.17;;;40.73;;
16593;SDS011;8410;52.532;13.336;2022-12-01T06:18:25;96.10;;;46.07;;
16593;SDS011;8410;52.532;13.336;2022-12-01T06:20:54;91.90;;;44.57;;
16593;SDS011;8410;52.532;13.336;2022-12-01T06:23:22;85.80;;;43.03;;
16593;SDS011;8410;52.532;13.336;2022-12-01T06:25:55;89.50;;;45.17;;
16593;SDS011;8410;52.532;13.336;2022-12-01T06:28:23;85.20;;;42.53;;
16593;SDS011;8410;52.532;13.336;2022-12-01T06:30:50;84.97;;;44.53;;
16593;SDS011;8410;52.532;13.336;2022-12-01T06:33:26;91.70;;;51.60;;
16593;SDS011;8410;52.532;13.336;2022-12-01T06:35:57;83.10;;;43.57;;
16593;SDS011;8410;52.532;13.336;2022-12-01T06:38:25;81.10;;;43.80;;
16593;SDS011;8410;52.532;13.336;2022-12-01T06:40:52;80.40;;;43.63;;
16593;SDS011;8410;52.532;13.336;2022-12-01T06:43:20;80.23;;;44.23;;
16593;SDS011;8410;52.532;13.336;2022-12-01T06:45:48;74.50;;;39.70;;
16593;SDS011;8410;52.532;13.336;2022-12-01T06:48:16;77.07;;;44.23;;
16593;SDS011;8410;52.532;13.336;2022-12-01T06:50:44;69.90;;;38.60;;
16593;SDS011;8410;52.532;13.336;2022-12-01T06:53:13;74.57;;;44.37;;
16593;SDS011;8410;52.532;13.336;2022-12-01T06:55:40;85.87;;;50.27;;
16593;SDS011;8410;52.532;13.336;2022-12-01T06:58:08;84.60;;;41.27;;
16593;SDS011;8410;52.532;13.336;2022-12-01T07:00:36;86.23;;;44.40;;
16593;SDS011;8410;52.532;13.336;2022-12-01T07:03:03;84.23;;;43.27;;
16593;SDS011;8410;52.532;13.336;2022-12-01T07:05:31;83.17;;;44.10;;
16593;SDS011;8410;52.532;13.336;2022-12-01T07:07:59;83.73;;;42.40;;
16593;SDS011;8410;52.532;13.336;2022-12-01T07:10:29;95.40;;;51.37;;
16593;SDS011;8410;52.532;13.336;2022-12-01T07:12:56;89.33;;;51.17;;
16593;SDS011;8410;52.532;13.336;2022-12-01T07:15:23;89.17;;;48.87;;
16593;SDS011;8410;52.532;13.336;2022-12-01T07:17:53;78.47;;;40.20;;
16593;SDS011;8410;52.532;13.336;2022-12-01T07:20:21;93.50;;;47.30;;
16593;SDS011;8410;52.532;13.336;2022-12-01T07:22:48;89.53;;;45.80;;
16593;SDS011;8410;52.532;13.336;2022-12-01T07:25:15;89.37;;;44.97;;
16593;SDS011;8410;52.532;13.336;2022-12-01T07:27:44;87.13;;;45.40;;
16593;SDS011;8410;52.532;13.336;2022-12-01T07:30:12;96.37;;;45.43;;
16593;SDS011;8410;52.532;13.336;2022-12-01T07:32:40;85.10;;;44.63;;
16593;SDS011;8410;52.532;13.336;2022-12-01T07:35:07;108.30;;;52.50;;
16593;SDS011;8410;52.532;13.336;2022-12-01T07:37:35;104.00;;;48.93;;
16593;SDS011;8410;52.532;13.336;2022-12-01T07:40:03;94.60;;;47.30;;
16593;SDS011;8410;52.532;13.336;2022-12-01T07:42:31;103.93;;;53.27;;
16593;SDS011;8410;52.532;13.336;2022-12-01T07:45:00;103.33;;;50.07;;
16593;SDS011;8410;52.532;13.336;2022-12-01T07:47:27;105.37;;;50.37;;
16593;SDS011;8410;52.532;13.336;2022-12-01T07:49:55;104.17;;;48.53;;
16593;SDS011;8410;52.532;13.336;2022-12-01T07:52:22;99.90;;;49.23;;
16593;SDS011;8410;52.532;13.336;2022-12-01T07:54:49;106.53;;;54.63;;
16593;SDS011;8410;52.532;13.336;2022-12-01T07:57:17;116.27;;;52.23;;
16593;SDS011;8410;52.532;13.336;2022-12-01T07:59:45;109.80;;;53.90;;
16593;SDS011;8410;52.532;13.336;2022-12-01T08:02:14;107.57;;;52.10;;
16593;SDS011;8410;52.532;13.336;2022-12-01T08:04:42;119.23;;;56.27;;
16593;SDS011;8410;52.532;13.336;2022-12-01T08:07:09;131.47;;;60.83;;
16593;SDS011;8410;52.532;13.336;2022-12-01T08:09:37;129.00;;;67.00;;
16593;SDS011;8410;52.532;13.336;2022-12-01T08:12:04;115.13;;;56.77;;
16593;SDS011;8410;52.532;13.336;2022-12-01T08:14:32;134.93;;;63.60;;
16593;SDS011;8410;52.532;13.336;2022-12-01T08:16:59;116.30;;;53.57;;
16593;SDS011;8410;52.532;13.336;2022-12-01T08:19:28;131.37;;;62.80;;
16593;SDS011;8410;52.532;13.336;2022-12-01T08:21:56;128.23;;;56.83;;
16593;SDS011;8410;52.532;13.336;2022-12-01T08:24:23;144.00;;;57.67;;
16593;SDS011;8410;52.532;13.336;2022-12-01T08:26:50;127.00;;;56.93;;
16593;SDS011;8410;52.532;13.336;2022-12-01T08:29:18;122.33;;;51.80;;
16593;SDS011;8410;52.532;13.336;2022-12-01T08:31:45;134.33;;;58.40;;
16593;SDS011;8410;52.532;13.336;2022-12-01T08:34:13;124.50;;;50.07;;
16593;SDS011;8410;52.532;13.336;2022-12-01T08:36:42;127.73;;;59.23;;
16593;SDS011;8410;52.532;13.336;2022-12-01T08:39:10;141.97;;;71.97;;
16593;SDS011;8410;52.532;13.336;2022-12-01T08:41:37;126.03;;;58.53;;
16593;SDS011;8410;52.532;13.336;2022-12-01T08:44:05;118.83;;;57.53;;
16593;SDS011;8410;52.532;13.336;2022-12-01T08:46:33;129.27;;;62.00;;
16593;SDS011;8410;52.532;13.336;2022-12-01T08:49:02;118.20;;;55.33;;
16593;SDS011;8410;52.532;13.336;2022-12-01T08:51:31;130.77;;;57.40;;
16593;SDS011;8410;52.532;13.336;2022-12-01T08:54:00;121.60;;;54.23;;
16593;SDS011;8410;52.532;13.336;2022-12-01T08:56:29;116.23;;;53.13;;
16593;SDS011;8410;52.532;13.336;2022-12-01T08:58:58;115.93;;;56.20;;
16593;SDS011;8410;52.532;13.336;2022-12-01T09:01:25;111.53;;;49.80;;
16593;SDS011;8410;52.532;13.336;2022-12-01T09:03:54;115.53;;;52.10;;
16593;SDS011;8410;52.532;13.336;2022-12-01T09:06:32;111.10;;;54.20;;
16593;SDS011;8410;52.532;13.336;2022-12-01T09:09:01;121.73;;;55.47;;
16593;SDS011;8410;52.532;13.336;2022-12-01T09:11:29;122.13;;;53.83;;
16593;SDS011;8410;52.532;13.336;2022-12-01T09:13:57;127.50;;;59.23;;
16593;SDS011;8410;52.532;13.336;2022-12-01T09:16:25;125.23;;;57.23;;
16593;SDS011;8410;52.532;13.336;2022-12-01T09:18:53;124.63;;;58.60;;
16593;SDS011;8410;52.532;13.336;2022-12-01T09:21:21;138.60;;;63.33;;
16593;SDS011;8410;52.532;13.336;2022-12-01T09:23:50;128.53;;;54.57;;
16593;SDS011;8410;52.532;13.336;2022-12-01T09:26:18;144.57;;;65.83;;
16593;SDS011;8410;52.532;13.336;2022-12-01T09:28:47;130.00;;;53.30;;
16593;SDS011;8410;52.532;13.336;2022-12-01T09:31:16;143.20;;;66.53;;
16593;SDS011;8410;52.532;13.336;2022-12-01T09:33:45;121.40;;;52.80;;
16593;SDS011;8410;52.532;13.336;2022-12-01T09:36:13;124.17;;;54.53;;
16593;SDS011;8410;52.532;13.336;2022-12-01T09:38:40;125.50;;;55.87;;
16593;SDS011;8410;52.532;13.336;2022-12-01T09:41:10;139.53;;;59.87;;
16593;SDS011;8410;52.532;13.336;2022-12-01T09:43:45;121.43;;;59.43;;
16593;SDS011;8410;52.532;13.336;2022-12-01T09:46:18;130.40;;;59.07;;
16593;SDS011;8410;52.532;13.336;2022-12-01T09:48:48;131.23;;;60.57;;
16593;SDS011;8410;52.532;13.336;2022-12-01T09:51:19;129.93;;;59.07;;
16593;SDS011;8410;52.532;13.336;2022-12-01T09:53:49;126.50;;;61.73;;
16593;SDS011;8410;52.532;13.336;2022-12-01T09:56:18;129.97;;;66.03;;
16593;SDS011;8410;52.532;13.336;2022-12-01T09:58:50;127.17;;;57.40;;
16593;SDS011;8410;52.532;13.336;2022-12-01T10:01:23;124.20;;;66.50;;
16593;SDS011;8410;52.532;13.336;2022-12-01T10:03:58;116.17;;;56.83;;
16593;SDS011;8410;52.532;13.336;2022-12-01T10:06:39;109.23;;;50.20;;
16593;SDS011;8410;52.532;13.336;2022-12-01T10:09:15;112.03;;;59.27;;
16593;SDS011;8410;52.532;13.336;2022-12-01T10:11:48;99.00;;;48.87;;
16593;SDS011;8410;52.532;13.336;2022-12-01T10:14:19;108.03;;;48.93;;
16593;SDS011;8410;52.532;13.336;2022-12-01T10:16:50;118.47;;;55.77;;
16593;SDS011;8410;52.532;13.336;2022-12-01T10:19:31;109.33;;;56.13;;
16593;SDS011;8410;52.532;13.336;2022-12-01T10:22:21;119.07;;;56.90;;
16593;SDS011;8410;52.532;13.336;2022-12-01T10:25:02;107.47;;;51.33;;
16593;SDS011;8410;52.532;13.336;2022-12-01T10:27:42;108.10;;;51.20;;
16593;SDS011;8410;52.532;13.336;2022-12-01T10:30:22;105.27;;;51.77;;
16593;SDS011;8410;52.532;13.336;2022-12-01T10:32:51;106.47;;;54.93;;
16593;SDS011;8410;52.532;13.336;2022-12-01T10:35:21;102.03;;;50.90;;
16593;SDS011;8410;52.532;13.336;2022-12-01T10:37:52;100.60;;;52.73;;
16593;SDS011;8410;52.532;13.336;2022-12-01T10:40:22;104.27;;;55.67;;
16593;SDS011;8410;52.532;13.336;2022-12-01T10:42:51;107.50;;;55.40;;
16593;SDS011;8410;52.532;13.336;2022-12-01T10:45:20;86.33;;;44.53;;
16593;SDS011;8410;52.532;13.336;2022-12-01T10:48:08;106.97;;;59.67;;
16593;SDS011;8410;52.532;13.336;2022-12-01T10:50:41;97.77;;;53.23;;
16593;SDS011;8410;52.532;13.336;2022-12-01T10:53:24;91.47;;;47.00;;
16593;SDS011;8410;52.532;13.336;2022-12-01T10:55:57;93.00;;;50.97;;
16593;SDS011;8410;52.532;13.336;2022-12-01T11:01:01;92.60;;;51.37;;
16593;SDS011;8410;52.532;13.336;2022-12-01T11:03:31;86.57;;;47.00;;
16593;SDS011;8410;52.532;13.336;2022-12-01T11:06:02;83.73;;;44.53;;
16593;SDS011;8410;52.532;13.336;2022-12-01T11:08:34;93.87;;;51.53;;
16593;SDS011;8410;52.532;13.336;2022-12-01T11:11:05;91.53;;;53.00;;
16593;SDS011;8410;52.532;13.336;2022-12-01T11:13:33;88.37;;;49.83;;
16593;SDS011;8410;52.532;13.336;2022-12-01T11:16:03;100.47;;;58.53;;
16593;SDS011;8410;52.532;13.336;2022-12-01T11:18:33;91.70;;;50.83;;
16593;SDS011;8410;52.532;13.336;2022-12-01T11:21:03;85.27;;;53.60;;
16593;SDS011;8410;52.532;13.336;2022-12-01T11:23:34;92.30;;;50.57;;
16593;SDS011;8410;52.532;13.336;2022-12-01T11:26:10;77.03;;;41.77;;
16593;SDS011;8410;52.532;13.336;2022-12-01T11:28:42;79.93;;;44.30;;
16593;SDS011;8410;52.532;13.336;2022-12-01T11:31:20;80.90;;;47.67;;
16593;SDS011;8410;52.532;13.336;2022-12-01T11:33:53;87.07;;;50.43;;
16593;SDS011;8410;52.532;13.336;2022-12-01T11:36:24;88.47;;;47.87;;
16593;SDS011;8410;52.532;13.336;2022-12-01T11:38:55;82.77;;;47.13;;
16593;SDS011;8410;52.532;13.336;2022-12-01T11:41:27;81.30;;;45.30;;
16593;SDS011;8410;52.532;13.336;2022-12-01T11:43:58;86.40;;;50.37;;
16593;SDS011;8410;52.532;13.336;2022-12-01T11:46:37;80.90;;;47.77;;
16593;SDS011;8410;52.532;13.336;2022-12-01T11:49:16;79.63;;;46.40;;
16593;SDS011;8410;52.532;13.336;2022-12-01T11:51:45;81.83;;;48.87;;
16593;SDS011;8410;52.532;13.336;2022-12-01T11:54:14;84.53;;;50.23;;
16593;SDS011;8410;52.532;13.336;2022-12-01T11:56:44;77.77;;;43.90;;
16593;SDS011;8410;52.532;13.336;2022-12-01T11:59:29;76.20;;;48.77;;
16593;SDS011;8410;52.532;13.336;2022-12-01T12:02:05;77.60;;;44.07;;
16593;SDS011;8410;52.532;13.336;2022-12-01T12:04:48;85.03;;;45.67;;
16593;SDS011;8410;52.532;13.336;2022-12-01T12:07:25;84.93;;;48.13;;
16593;SDS011;8410;52.532;13.336;2022-12-01T12:10:06;69.57;;;42.03;;
16593;SDS011;8410;52.532;13.336;2022-12-01T12:12:51;69.00;;;40.43;;
16593;SDS011;8410;52.532;13.336;2022-12-01T12:15:31;67.53;;;38.80;;
16593;SDS011;8410;52.532;13.336;2022-12-01T12:18:12;75.60;;;45.97;;
16593;SDS011;8410;52.532;13.336;2022-12-01T12:20:55;75.07;;;46.07;;
16593;SDS011;8410;52.532;13.336;2022-12-01T12:23:36;76.80;;;50.00;;
16593;SDS011;8410;52.532;13.336;2022-12-01T12:26:20;75.63;;;44.67;;
16593;SDS011;8410;52.532;13.336;2022-12-01T12:28:53;69.50;;;40.73;;
16593;SDS011;8410;52.532;13.336;2022-12-01T12:31:41;76.33;;;44.77;;
16593;SDS011;8410;52.532;13.336;2022-12-01T12:34:21;66.77;;;37.73;;
16593;SDS011;8410;52.532;13.336;2022-12-01T12:37:08;71.87;;;42.63;;
16593;SDS011;8410;52.532;13.336;2022-12-01T12:39:45;71.10;;;46.50;;
16593;SDS011;8410;52.532;13.336;2022-12-01T12:42:24;67.00;;;44.00;;
16593;SDS011;8410;52.532;13.336;2022-12-01T12:45:02;67.93;;;42.47;;
16593;SDS011;8410;52.532;13.336;2022-12-01T12:47:44;70.30;;;42.03;;
16593;SDS011;8410;52.532;13.336;2022-12-01T12:50:24;68.37;;;44.30;;
16593;SDS011;8410;52.532;13.336;2022-12-01T12:52:58;70.90;;;46.13;;
16593;SDS011;8410;52.532;13.336;2022-12-01T12:55:31;67.40;;;38.57;;
16593;SDS011;8410;52.532;13.336;2022-12-01T12:58:04;70.67;;;45.90;;
16593;SDS011;8410;52.532;13.336;2022-12-01T13:00:38;63.23;;;39.13;;
16593;SDS011;8410;52.532;13.336;2022-12-01T13:03:12;66.87;;;42.17;;
16593;SDS011;8410;52.532;13.336;2022-12-01T13:05:46;69.57;;;47.17;;
16593;SDS011;8410;52.532;13.336;2022-12-01T13:08:19;64.53;;;38.57;;
16593;SDS011;8410;52.532;13.336;2022-12-01T13:10:51;69.37;;;44.00;;
16593;SDS011;8410;52.532;13.336;2022-12-01T13:13:24;60.00;;;36.73;;
16593;SDS011;8410;52.532;13.336;2022-12-01T13:15:56;61.57;;;39.33;;
16593;SDS011;8410;52.532;13.336;2022-12-01T13:18:31;57.07;;;36.97;;
16593;SDS011;8410;52.532;13.336;2022-12-01T13:21:02;63.73;;;41.60;;
16593;SDS011;8410;52.532;13.336;2022-12-01T13:23:31;69.80;;;46.87;;
16593;SDS011;8410;52.532;13.336;2022-12-01T13:26:00;67.00;;;42.47;;
16593;SDS011;8410;52.532;13.336;2022-12-01T13:28:34;59.17;;;38.87;;
16593;SDS011;8410;52.532;13.336;2022-12-01T13:31:07;65.07;;;40.70;;
16593;SDS011;8410;52.532;13.336;2022-12-01T13:33:38;70.07;;;43.37;;
16593;SDS011;8410;52.532;13.336;2022-12-01T13:36:12;53.77;;;32.53;;
16593;SDS011;8410;52.532;13.336;2022-12-01T13:39:00;59.07;;;36.13;;
16593;SDS011;8410;52.532;13.336;2022-12-01T13:41:31;64.40;;;39.03;;
16593;SDS011;8410;52.532;13.336;2022-12-01T13:44:01;55.87;;;37.23;;
16593;SDS011;8410;52.532;13.336;2022-12-01T13:49:30;63.27;;;38.80;;
16593;SDS011;8410;52.532;13.336;2022-12-01T13:52:29;58.97;;;38.53;;
16593;SDS011;8410;52.532;13.336;2022-12-01T13:57:49;55.87;;;37.53;;
16593;SDS011;8410;52.532;13.336;2022-12-01T14:04:23;55.43;;;37.13;;
16593;SDS011;8410;52.532;13.336;2022-12-01T14:09:48;55.40;;;34.73;;
16593;SDS011;8410;52.532;13.336;2022-12-01T14:12:18;61.60;;;39.33;;
16593;SDS011;8410;52.532;13.336;2022-12-01T14:14:50;62.97;;;36.33;;
16593;SDS011;8410;52.532;13.336;2022-12-01T14:17:26;60.90;;;40.20;;
16593;SDS011;8410;52.532;13.336;2022-12-01T14:20:02;56.20;;;36.50;;
16593;SDS011;8410;52.532;13.336;2022-12-01T14:22:34;56.37;;;36.63;;
16593;SDS011;8410;52.532;13.336;2022-12-01T14:25:20;59.93;;;39.43;;
16593;SDS011;8410;52.532;13.336;2022-12-01T14:27:52;56.67;;;36.40;;
16593;SDS011;8410;52.532;13.336;2022-12-01T14:36:31;62.63;;;39.00;;
16593;SDS011;8410;52.532;13.336;2022-12-01T14:39:05;55.80;;;33.13;;
16593;SDS011;8410;52.532;13.336;2022-12-01T14:41:41;57.60;;;35.97;;
16593;SDS011;8410;52.532;13.336;2022-12-01T14:44:13;57.93;;;34.63;;
16593;SDS011;8410;52.532;13.336;2022-12-01T14:46:48;62.87;;;38.50;;
16593;SDS011;8410;52.532;13.336;2022-12-01T14:49:21;58.53;;;39.27;;
16593;SDS011;8410;52.532;13.336;2022-12-01T14:51:54;59.67;;;36.50;;
16593;SDS011;8410;52.532;13.336;2022-12-01T14:54:25;57.20;;;35.77;;
16593;SDS011;8410;52.532;13.336;2022-12-01T14:56:58;62.80;;;40.33;;
16593;SDS011;8410;52.532;13.336;2022-12-01T14:59:33;59.20;;;37.70;;
16593;SDS011;8410;52.532;13.336;2022-12-01T15:02:01;61.77;;;39.10;;
16593;SDS011;8410;52.532;13.336;2022-12-01T15:04:34;60.30;;;38.70;;
16593;SDS011;8410;52.532;13.336;2022-12-01T15:07:02;58.13;;;36.03;;